sensor_id;sensor_type;location;lat;lon;timestamp;temperature;humidity
506;DHT22;551;48.524;9.056;2024-01-06T00:02:05;7.60;1.00
506;DHT22;551;48.524;9.056;2024-01-06T00:04:31;7.70;1.00
506;DHT22;551;48.524;9.056;2024-01-06T00:06:57;7.70;1.00
506;DHT22;551;48.524;9.056;2024-01-06T00:09:22;7.70;1.00
506;DHT22;551;48.524;9.056;2024-01-06T00:11:48;7.80;1.00
506;DHT22;551;48.524;9.056;2024-01-06T00:14:13;7.80;1.00
506;DHT22;551;48.524;9.056;2024-01-06T00:16:39;7.70;1.00
506;DHT22;551;48.524;9.056;2024-01-06T00:19:05;7.70;1.00
506;DHT22;551;48.524;9.056;2024-01-06T00:21:30;7.80;1.00
506;DHT22;551;48.524;9.056;2024-01-06T00:23:56;7.80;1.00
506;DHT22;551;48.524;9.056;2024-01-06T00:26:22;7.70;1.00
506;DHT22;551;48.524;9.056;2024-01-06T00:28:47;7.80;1.00
506;DHT22;551;48.524;9.056;2024-01-06T00:31:17;7.70;1.00
506;DHT22;551;48.524;9.056;2024-01-06T00:33:43;7.80;1.00
506;DHT22;551;48.524;9.056;2024-01-06T00:36:08;7.80;1.00
506;DHT22;551;48.524;9.056;2024-01-06T00:38:34;7.80;1.00
506;DHT22;551;48.524;9.056;2024-01-06T00:41:03;7.80;1.00
506;DHT22;551;48.524;9.056;2024-01-06T00:43:28;7.80;1.00
506;DHT22;551;48.524;9.056;2024-01-06T00:45:54;7.80;1.00
506;DHT22;551;48.524;9.056;2024-01-06T00:48:20;7.90;1.00
506;DHT22;551;48.524;9.056;2024-01-06T00:50:45;7.90;1.00
506;DHT22;551;48.524;9.056;2024-01-06T00:53:11;8.00;1.00
506;DHT22;551;48.524;9.056;2024-01-06T00:55:37;8.00;1.00
506;DHT22;551;48.524;9.056;2024-01-06T00:58:03;8.00;1.00
506;DHT22;551;48.524;9.056;2024-01-06T01:00:28;8.00;1.00
506;DHT22;551;48.524;9.056;2024-01-06T01:02:54;8.00;1.00
506;DHT22;551;48.524;9.056;2024-01-06T01:05:19;8.00;1.00
506;DHT22;551;48.524;9.056;2024-01-06T01:07:45;8.00;1.00
506;DHT22;551;48.524;9.056;2024-01-06T01:10:10;8.00;1.00
506;DHT22;551;48.524;9.056;2024-01-06T01:12:36;7.90;1.00
506;DHT22;551;48.524;9.056;2024-01-06T01:15:02;7.90;1.00
506;DHT22;551;48.524;9.056;2024-01-06T01:17:28;7.90;1.00
506;DHT22;551;48.524;9.056;2024-01-06T01:19:54;7.90;1.00
506;DHT22;551;48.524;9.056;2024-01-06T01:22:19;7.80;1.00
506;DHT22;551;48.524;9.056;2024-01-06T01:24:45;7.80;1.00
506;DHT22;551;48.524;9.056;2024-01-06T01:27:10;7.70;1.00
506;DHT22;551;48.524;9.056;2024-01-06T01:29:36;7.70;1.00
506;DHT22;551;48.524;9.056;2024-01-06T01:32:01;7.60;1.00
506;DHT22;551;48.524;9.056;2024-01-06T01:34:27;7.60;1.00
506;DHT22;551;48.524;9.056;2024-01-06T01:36:53;7.60;1.00
506;DHT22;551;48.524;9.056;2024-01-06T01:39:18;7.60;1.00
506;DHT22;551;48.524;9.056;2024-01-06T01:41:44;7.50;1.00
506;DHT22;551;48.524;9.056;2024-01-06T01:44:09;7.50;1.00
506;DHT22;551;48.524;9.056;2024-01-06T01:46:35;7.40;1.00
506;DHT22;551;48.524;9.056;2024-01-06T01:49:01;7.40;1.00
506;DHT22;551;48.524;9.056;2024-01-06T01:51:31;7.40;1.00
506;DHT22;551;48.524;9.056;2024-01-06T01:53:57;7.40;1.00
506;DHT22;551;48.524;9.056;2024-01-06T01:56:24;7.40;1.00
506;DHT22;551;48.524;9.056;2024-01-06T01:58:50;7.40;1.00
506;DHT22;551;48.524;9.056;2024-01-06T02:01:16;7.50;1.00
506;DHT22;551;48.524;9.056;2024-01-06T02:03:42;7.50;1.00
506;DHT22;551;48.524;9.056;2024-01-06T02:06:09;7.50;1.00
506;DHT22;551;48.524;9.056;2024-01-06T02:08:34;7.50;1.00
506;DHT22;551;48.524;9.056;2024-01-06T02:11:00;7.40;1.00
506;DHT22;551;48.524;9.056;2024-01-06T02:13:33;7.40;1.00
506;DHT22;551;48.524;9.056;2024-01-06T02:15:59;7.40;1.00
506;DHT22;551;48.524;9.056;2024-01-06T02:18:25;7.40;1.00
506;DHT22;551;48.524;9.056;2024-01-06T02:20:53;7.50;1.00
506;DHT22;551;48.524;9.056;2024-01-06T02:23:22;7.50;1.00
506;DHT22;551;48.524;9.056;2024-01-06T02:25:48;7.60;1.00
506;DHT22;551;48.524;9.056;2024-01-06T02:28:13;7.60;1.00
506;DHT22;551;48.524;9.056;2024-01-06T02:30:39;7.50;1.00
506;DHT22;551;48.524;9.056;2024-01-06T02:33:04;7.60;1.00
506;DHT22;551;48.524;9.056;2024-01-06T02:35:30;7.60;1.00
506;DHT22;551;48.524;9.056;2024-01-06T02:37:55;7.60;1.00
506;DHT22;551;48.524;9.056;2024-01-06T02:40:21;7.60;1.00
506;DHT22;551;48.524;9.056;2024-01-06T02:42:46;7.60;1.00
506;DHT22;551;48.524;9.056;2024-01-06T02:45:12;7.60;1.00
506;DHT22;551;48.524;9.056;2024-01-06T02:47:37;7.60;1.00
506;DHT22;551;48.524;9.056;2024-01-06T02:50:03;7.60;1.00
506;DHT22;551;48.524;9.056;2024-01-06T02:52:29;7.50;1.00
506;DHT22;551;48.524;9.056;2024-01-06T02:54:55;7.60;1.00
506;DHT22;551;48.524;9.056;2024-01-06T02:57:20;7.50;1.00
506;DHT22;551;48.524;9.056;2024-01-06T02:59:46;7.50;1.00
506;DHT22;551;48.524;9.056;2024-01-06T03:02:11;7.50;1.00
506;DHT22;551;48.524;9.056;2024-01-06T03:04:37;7.40;1.00
506;DHT22;551;48.524;9.056;2024-01-06T03:07:02;7.30;1.00
506;DHT22;551;48.524;9.056;2024-01-06T03:09:28;7.40;1.00
506;DHT22;551;48.524;9.056;2024-01-06T03:11:53;7.40;1.00
506;DHT22;551;48.524;9.056;2024-01-06T03:14:19;7.40;1.00
506;DHT22;551;48.524;9.056;2024-01-06T03:16:44;7.50;1.00
506;DHT22;551;48.524;9.056;2024-01-06T03:19:10;7.50;1.00
506;DHT22;551;48.524;9.056;2024-01-06T03:21:35;7.40;1.00
506;DHT22;551;48.524;9.056;2024-01-06T03:24:01;7.40;1.00
506;DHT22;551;48.524;9.056;2024-01-06T03:26:26;7.30;1.00
506;DHT22;551;48.524;9.056;2024-01-06T03:28:54;7.30;1.00
506;DHT22;551;48.524;9.056;2024-01-06T03:31:20;7.30;1.00
506;DHT22;551;48.524;9.056;2024-01-06T03:33:47;7.30;1.00
506;DHT22;551;48.524;9.056;2024-01-06T03:36:13;7.10;1.00
506;DHT22;551;48.524;9.056;2024-01-06T03:38:41;7.10;1.00
506;DHT22;551;48.524;9.056;2024-01-06T03:41:06;7.10;1.00
506;DHT22;551;48.524;9.056;2024-01-06T03:43:32;7.10;1.00
506;DHT22;551;48.524;9.056;2024-01-06T03:45:58;7.10;1.00
506;DHT22;551;48.524;9.056;2024-01-06T03:48:25;7.10;1.00
506;DHT22;551;48.524;9.056;2024-01-06T03:50:51;7.10;1.00
506;DHT22;551;48.524;9.056;2024-01-06T03:53:16;7.00;1.00
506;DHT22;551;48.524;9.056;2024-01-06T03:55:42;7.00;1.00
506;DHT22;551;48.524;9.056;2024-01-06T03:58:08;7.00;1.00
506;DHT22;551;48.524;9.056;2024-01-06T04:00:34;6.90;1.00
506;DHT22;551;48.524;9.056;2024-01-06T04:02:59;7.00;1.00
506;DHT22;551;48.524;9.056;2024-01-06T04:05:25;7.00;1.00
506;DHT22;551;48.524;9.056;2024-01-06T04:07:50;6.90;1.00
506;DHT22;551;48.524;9.056;2024-01-06T04:10:16;7.00;1.00
506;DHT22;551;48.524;9.056;2024-01-06T04:12:41;7.00;1.00
506;DHT22;551;48.524;9.056;2024-01-06T04:15:07;7.00;1.00
506;DHT22;551;48.524;9.056;2024-01-06T04:17:33;7.00;1.00
506;DHT22;551;48.524;9.056;2024-01-06T04:19:58;7.00;1.00
506;DHT22;551;48.524;9.056;2024-01-06T04:22:24;6.90;1.00
506;DHT22;551;48.524;9.056;2024-01-06T04:24:49;6.90;1.00
506;DHT22;551;48.524;9.056;2024-01-06T04:27:15;6.90;1.00
506;DHT22;551;48.524;9.056;2024-01-06T04:29:41;6.90;1.00
506;DHT22;551;48.524;9.056;2024-01-06T04:32:06;7.00;1.00
506;DHT22;551;48.524;9.056;2024-01-06T04:34:33;7.00;1.00
506;DHT22;551;48.524;9.056;2024-01-06T04:36:58;7.00;1.00
506;DHT22;551;48.524;9.056;2024-01-06T04:39:24;7.00;1.00
506;DHT22;551;48.524;9.056;2024-01-06T04:41:49;7.00;1.00
506;DHT22;551;48.524;9.056;2024-01-06T04:44:15;7.00;1.00
506;DHT22;551;48.524;9.056;2024-01-06T04:46:40;7.10;1.00
506;DHT22;551;48.524;9.056;2024-01-06T04:49:06;7.00;1.00
506;DHT22;551;48.524;9.056;2024-01-06T04:51:31;7.00;1.00
506;DHT22;551;48.524;9.056;2024-01-06T04:53:57;7.10;1.00
506;DHT22;551;48.524;9.056;2024-01-06T04:56:22;7.10;1.00
506;DHT22;551;48.524;9.056;2024-01-06T04:58:48;7.10;1.00
506;DHT22;551;48.524;9.056;2024-01-06T05:01:14;7.10;1.00
506;DHT22;551;48.524;9.056;2024-01-06T05:03:39;7.20;1.00
506;DHT22;551;48.524;9.056;2024-01-06T05:06:05;7.20;1.00
506;DHT22;551;48.524;9.056;2024-01-06T05:08:32;7.20;1.00
506;DHT22;551;48.524;9.056;2024-01-06T05:10:57;7.30;1.00
506;DHT22;551;48.524;9.056;2024-01-06T05:13:23;7.30;1.00
506;DHT22;551;48.524;9.056;2024-01-06T05:15:48;7.20;1.00
506;DHT22;551;48.524;9.056;2024-01-06T05:18:14;7.10;1.00
506;DHT22;551;48.524;9.056;2024-01-06T05:20:39;7.10;1.00
506;DHT22;551;48.524;9.056;2024-01-06T05:23:06;7.10;1.00
506;DHT22;551;48.524;9.056;2024-01-06T05:25:32;7.10;1.00
506;DHT22;551;48.524;9.056;2024-01-06T05:27:58;7.10;1.00
506;DHT22;551;48.524;9.056;2024-01-06T05:30:23;7.10;1.00
506;DHT22;551;48.524;9.056;2024-01-06T05:32:49;7.20;1.00
506;DHT22;551;48.524;9.056;2024-01-06T05:35:16;7.20;1.00
506;DHT22;551;48.524;9.056;2024-01-06T05:37:42;7.20;1.00
506;DHT22;551;48.524;9.056;2024-01-06T05:40:07;7.30;1.00
506;DHT22;551;48.524;9.056;2024-01-06T05:42:33;7.30;1.00
506;DHT22;551;48.524;9.056;2024-01-06T05:44:59;7.30;1.00
506;DHT22;551;48.524;9.056;2024-01-06T05:47:24;7.30;1.00
506;DHT22;551;48.524;9.056;2024-01-06T05:49:50;7.40;1.00
506;DHT22;551;48.524;9.056;2024-01-06T05:52:15;7.40;1.00
506;DHT22;551;48.524;9.056;2024-01-06T05:54:41;7.40;1.00
506;DHT22;551;48.524;9.056;2024-01-06T05:57:09;7.40;1.00
506;DHT22;551;48.524;9.056;2024-01-06T05:59:35;7.40;1.00
506;DHT22;551;48.524;9.056;2024-01-06T06:02:01;7.40;1.00
506;DHT22;551;48.524;9.056;2024-01-06T06:04:27;7.40;1.00
506;DHT22;551;48.524;9.056;2024-01-06T06:06:52;7.40;1.00
506;DHT22;551;48.524;9.056;2024-01-06T06:09:18;7.30;1.00
506;DHT22;551;48.524;9.056;2024-01-06T06:11:43;7.30;1.00
506;DHT22;551;48.524;9.056;2024-01-06T06:14:09;7.30;1.00
506;DHT22;551;48.524;9.056;2024-01-06T06:16:35;7.30;1.00
506;DHT22;551;48.524;9.056;2024-01-06T06:19:00;7.30;1.00
506;DHT22;551;48.524;9.056;2024-01-06T06:21:26;7.30;1.00
506;DHT22;551;48.524;9.056;2024-01-06T06:23:51;7.30;1.00
506;DHT22;551;48.524;9.056;2024-01-06T06:26:17;7.30;1.00
506;DHT22;551;48.524;9.056;2024-01-06T06:28:43;7.30;1.00
506;DHT22;551;48.524;9.056;2024-01-06T06:31:08;7.30;1.00
506;DHT22;551;48.524;9.056;2024-01-06T06:33:34;7.20;1.00
506;DHT22;551;48.524;9.056;2024-01-06T06:35:59;7.10;1.00
506;DHT22;551;48.524;9.056;2024-01-06T06:38:25;7.20;1.00
506;DHT22;551;48.524;9.056;2024-01-06T06:40:51;7.10;1.00
506;DHT22;551;48.524;9.056;2024-01-06T06:43:17;7.10;1.00
506;DHT22;551;48.524;9.056;2024-01-06T06:45:42;7.10;1.00
506;DHT22;551;48.524;9.056;2024-01-06T06:48:08;7.10;1.00
506;DHT22;551;48.524;9.056;2024-01-06T06:50:33;7.10;1.00
506;DHT22;551;48.524;9.056;2024-01-06T06:52:59;7.10;1.00
506;DHT22;551;48.524;9.056;2024-01-06T06:55:26;7.10;1.00
506;DHT22;551;48.524;9.056;2024-01-06T06:57:52;7.20;1.00
506;DHT22;551;48.524;9.056;2024-01-06T07:00:18;7.20;1.00
506;DHT22;551;48.524;9.056;2024-01-06T07:02:44;7.20;1.00
506;DHT22;551;48.524;9.056;2024-01-06T07:05:09;7.20;1.00
506;DHT22;551;48.524;9.056;2024-01-06T07:07:35;7.20;1.00
506;DHT22;551;48.524;9.056;2024-01-06T07:10:01;7.30;1.00
506;DHT22;551;48.524;9.056;2024-01-06T07:12:28;7.30;1.00
506;DHT22;551;48.524;9.056;2024-01-06T07:14:53;7.30;1.00
506;DHT22;551;48.524;9.056;2024-01-06T07:17:19;7.30;1.00
506;DHT22;551;48.524;9.056;2024-01-06T07:19:45;7.20;1.00
506;DHT22;551;48.524;9.056;2024-01-06T07:22:10;7.10;1.00
506;DHT22;551;48.524;9.056;2024-01-06T07:24:36;7.10;1.00
506;DHT22;551;48.524;9.056;2024-01-06T07:27:02;7.20;1.00
506;DHT22;551;48.524;9.056;2024-01-06T07:29:28;7.20;1.00
506;DHT22;551;48.524;9.056;2024-01-06T07:31:54;7.20;1.00
506;DHT22;551;48.524;9.056;2024-01-06T07:34:20;7.20;1.00
506;DHT22;551;48.524;9.056;2024-01-06T07:36:45;7.20;1.00
506;DHT22;551;48.524;9.056;2024-01-06T07:39:11;7.20;1.00
506;DHT22;551;48.524;9.056;2024-01-06T07:41:36;7.10;1.00
506;DHT22;551;48.524;9.056;2024-01-06T07:44:02;7.10;1.00
506;DHT22;551;48.524;9.056;2024-01-06T07:46:30;7.10;1.00
506;DHT22;551;48.524;9.056;2024-01-06T07:48:57;7.10;1.00
506;DHT22;551;48.524;9.056;2024-01-06T07:51:23;7.10;1.00
506;DHT22;551;48.524;9.056;2024-01-06T07:53:48;7.10;1.00
506;DHT22;551;48.524;9.056;2024-01-06T07:56:14;7.10;1.00
506;DHT22;551;48.524;9.056;2024-01-06T07:58:39;7.10;1.00
506;DHT22;551;48.524;9.056;2024-01-06T08:01:05;7.10;1.00
506;DHT22;551;48.524;9.056;2024-01-06T08:03:30;7.20;1.00
506;DHT22;551;48.524;9.056;2024-01-06T08:05:56;7.30;1.00
506;DHT22;551;48.524;9.056;2024-01-06T08:08:21;7.30;1.00
506;DHT22;551;48.524;9.056;2024-01-06T08:10:47;7.40;1.00
506;DHT22;551;48.524;9.056;2024-01-06T08:13:14;7.40;1.00
506;DHT22;551;48.524;9.056;2024-01-06T08:15:39;7.60;1.00
506;DHT22;551;48.524;9.056;2024-01-06T08:18:05;7.60;1.00
506;DHT22;551;48.524;9.056;2024-01-06T08:20:31;7.60;1.00
506;DHT22;551;48.524;9.056;2024-01-06T08:22:56;7.60;1.00
506;DHT22;551;48.524;9.056;2024-01-06T08:25:22;7.70;1.00
506;DHT22;551;48.524;9.056;2024-01-06T08:27:47;7.70;1.00
506;DHT22;551;48.524;9.056;2024-01-06T08:30:13;7.70;1.00
506;DHT22;551;48.524;9.056;2024-01-06T08:32:38;7.70;1.00
506;DHT22;551;48.524;9.056;2024-01-06T08:35:04;7.70;1.00
506;DHT22;551;48.524;9.056;2024-01-06T08:37:30;7.80;1.00
506;DHT22;551;48.524;9.056;2024-01-06T08:39:55;7.90;1.00
506;DHT22;551;48.524;9.056;2024-01-06T08:42:21;7.90;1.00
506;DHT22;551;48.524;9.056;2024-01-06T08:44:47;8.00;1.00
506;DHT22;551;48.524;9.056;2024-01-06T08:47:13;8.10;1.00
506;DHT22;551;48.524;9.056;2024-01-06T08:49:38;8.20;1.00
506;DHT22;551;48.524;9.056;2024-01-06T08:52:04;8.30;1.00
506;DHT22;551;48.524;9.056;2024-01-06T08:54:31;8.40;1.00
506;DHT22;551;48.524;9.056;2024-01-06T08:56:56;8.50;1.00
506;DHT22;551;48.524;9.056;2024-01-06T08:59:22;8.60;1.00
506;DHT22;551;48.524;9.056;2024-01-06T09:01:47;8.70;1.00
506;DHT22;551;48.524;9.056;2024-01-06T09:04:13;8.80;1.00
506;DHT22;551;48.524;9.056;2024-01-06T09:06:40;8.90;1.00
506;DHT22;551;48.524;9.056;2024-01-06T09:09:07;9.10;1.00
506;DHT22;551;48.524;9.056;2024-01-06T09:11:33;9.20;1.00
506;DHT22;551;48.524;9.056;2024-01-06T09:13:58;9.40;1.00
506;DHT22;551;48.524;9.056;2024-01-06T09:16:24;9.40;1.00
506;DHT22;551;48.524;9.056;2024-01-06T09:18:50;9.50;1.00
506;DHT22;551;48.524;9.056;2024-01-06T09:21:15;9.60;1.00
506;DHT22;551;48.524;9.056;2024-01-06T09:23:43;9.80;1.00
506;DHT22;551;48.524;9.056;2024-01-06T09:26:08;9.90;1.00
506;DHT22;551;48.524;9.056;2024-01-06T09:28:34;9.90;1.00
506;DHT22;551;48.524;9.056;2024-01-06T09:30:59;9.90;1.00
506;DHT22;551;48.524;9.056;2024-01-06T09:33:25;10.00;1.00
506;DHT22;551;48.524;9.056;2024-01-06T09:35:51;10.00;1.00
506;DHT22;551;48.524;9.056;2024-01-06T09:38:16;9.90;1.00
506;DHT22;551;48.524;9.056;2024-01-06T09:40:44;9.80;1.00
506;DHT22;551;48.524;9.056;2024-01-06T09:43:10;9.80;1.00
506;DHT22;551;48.524;9.056;2024-01-06T09:45:37;9.80;1.00
506;DHT22;551;48.524;9.056;2024-01-06T09:48:11;9.90;1.00
506;DHT22;551;48.524;9.056;2024-01-06T09:50:41;9.80;1.00
506;DHT22;551;48.524;9.056;2024-01-06T09:53:10;9.90;1.00
506;DHT22;551;48.524;9.056;2024-01-06T09:55:36;9.90;1.00
506;DHT22;551;48.524;9.056;2024-01-06T09:58:02;9.90;1.00
506;DHT22;551;48.524;9.056;2024-01-06T10:00:27;9.90;1.00
506;DHT22;551;48.524;9.056;2024-01-06T10:02:54;9.90;1.00
506;DHT22;551;48.524;9.056;2024-01-06T10:05:20;9.80;1.00
506;DHT22;551;48.524;9.056;2024-01-06T10:07:46;9.80;1.00
506;DHT22;551;48.524;9.056;2024-01-06T10:10:12;9.80;1.00
506;DHT22;551;48.524;9.056;2024-01-06T10:12:38;9.70;1.00
506;DHT22;551;48.524;9.056;2024-01-06T10:15:08;9.60;1.00
506;DHT22;551;48.524;9.056;2024-01-06T10:17:37;9.60;1.00
506;DHT22;551;48.524;9.056;2024-01-06T10:20:12;9.70;1.00
506;DHT22;551;48.524;9.056;2024-01-06T10:22:40;9.80;1.00
506;DHT22;551;48.524;9.056;2024-01-06T10:25:08;9.80;1.00
506;DHT22;551;48.524;9.056;2024-01-06T10:27:37;9.80;1.00
506;DHT22;551;48.524;9.056;2024-01-06T10:30:04;9.90;1.00
506;DHT22;551;48.524;9.056;2024-01-06T10:32:34;10.00;1.00
506;DHT22;551;48.524;9.056;2024-01-06T10:35:03;9.90;1.00
506;DHT22;551;48.524;9.056;2024-01-06T10:37:31;10.00;1.00
506;DHT22;551;48.524;9.056;2024-01-06T10:40:13;9.90;1.00
506;DHT22;551;48.524;9.056;2024-01-06T10:42:39;9.90;1.00
506;DHT22;551;48.524;9.056;2024-01-06T10:45:14;9.90;1.00
506;DHT22;551;48.524;9.056;2024-01-06T10:47:41;10.00;1.00
506;DHT22;551;48.524;9.056;2024-01-06T10:50:10;10.00;1.00
506;DHT22;551;48.524;9.056;2024-01-06T10:52:38;9.90;1.00
506;DHT22;551;48.524;9.056;2024-01-06T10:55:04;9.90;1.00
506;DHT22;551;48.524;9.056;2024-01-06T10:57:31;10.00;1.00
506;DHT22;551;48.524;9.056;2024-01-06T11:00:00;9.90;1.00
506;DHT22;551;48.524;9.056;2024-01-06T11:02:26;9.80;1.00
506;DHT22;551;48.524;9.056;2024-01-06T11:04:53;9.70;1.00
506;DHT22;551;48.524;9.056;2024-01-06T11:07:20;9.60;1.00
506;DHT22;551;48.524;9.056;2024-01-06T11:10:08;9.60;1.00
506;DHT22;551;48.524;9.056;2024-01-06T11:12:36;9.60;1.00
506;DHT22;551;48.524;9.056;2024-01-06T11:15:01;9.70;1.00
506;DHT22;551;48.524;9.056;2024-01-06T11:17:54;9.90;1.00
506;DHT22;551;48.524;9.056;2024-01-06T11:20:22;9.90;1.00
506;DHT22;551;48.524;9.056;2024-01-06T11:22:48;9.80;1.00
506;DHT22;551;48.524;9.056;2024-01-06T11:25:15;9.80;1.00
506;DHT22;551;48.524;9.056;2024-01-06T11:27:43;9.70;1.00
506;DHT22;551;48.524;9.056;2024-01-06T11:30:25;9.80;1.00
506;DHT22;551;48.524;9.056;2024-01-06T11:32:52;9.90;1.00
506;DHT22;551;48.524;9.056;2024-01-06T11:35:19;9.80;1.00
506;DHT22;551;48.524;9.056;2024-01-06T11:42:41;10.20;1.00
506;DHT22;551;48.524;9.056;2024-01-06T11:45:07;10.20;1.00
506;DHT22;551;48.524;9.056;2024-01-06T11:47:34;10.30;1.00
506;DHT22;551;48.524;9.056;2024-01-06T11:50:01;10.30;1.00
506;DHT22;551;48.524;9.056;2024-01-06T11:52:31;10.40;1.00
506;DHT22;551;48.524;9.056;2024-01-06T11:54:57;10.40;1.00
506;DHT22;551;48.524;9.056;2024-01-06T11:57:22;10.50;1.00
506;DHT22;551;48.524;9.056;2024-01-06T11:59:50;10.50;1.00
506;DHT22;551;48.524;9.056;2024-01-06T12:02:18;10.30;1.00
506;DHT22;551;48.524;9.056;2024-01-06T12:04:51;10.30;1.00
506;DHT22;551;48.524;9.056;2024-01-06T12:07:17;10.30;1.00
506;DHT22;551;48.524;9.056;2024-01-06T12:09:43;10.10;1.00
506;DHT22;551;48.524;9.056;2024-01-06T12:12:08;10.10;1.00
506;DHT22;551;48.524;9.056;2024-01-06T12:14:41;10.00;1.00
506;DHT22;551;48.524;9.056;2024-01-06T12:17:07;10.00;1.00
506;DHT22;551;48.524;9.056;2024-01-06T12:19:33;9.90;1.00
506;DHT22;551;48.524;9.056;2024-01-06T12:21:59;9.90;1.00
506;DHT22;551;48.524;9.056;2024-01-06T12:24:27;9.80;1.00
506;DHT22;551;48.524;9.056;2024-01-06T12:26:55;9.90;1.00
506;DHT22;551;48.524;9.056;2024-01-06T12:29:27;9.90;1.00
506;DHT22;551;48.524;9.056;2024-01-06T12:31:54;9.90;1.00
506;DHT22;551;48.524;9.056;2024-01-06T12:34:20;9.80;1.00
506;DHT22;551;48.524;9.056;2024-01-06T12:36:46;9.70;1.00
506;DHT22;551;48.524;9.056;2024-01-06T12:39:13;9.70;1.00
506;DHT22;551;48.524;9.056;2024-01-06T12:41:42;9.80;1.00
506;DHT22;551;48.524;9.056;2024-01-06T12:44:08;9.90;1.00
506;DHT22;551;48.524;9.056;2024-01-06T12:46:35;9.90;1.00
506;DHT22;551;48.524;9.056;2024-01-06T12:49:00;10.10;1.00
506;DHT22;551;48.524;9.056;2024-01-06T12:51:26;10.20;1.00
506;DHT22;551;48.524;9.056;2024-01-06T12:53:51;10.40;1.00
506;DHT22;551;48.524;9.056;2024-01-06T12:56:17;10.50;1.00
506;DHT22;551;48.524;9.056;2024-01-06T12:58:43;10.50;1.00
506;DHT22;551;48.524;9.056;2024-01-06T13:01:12;10.60;1.00
506;DHT22;551;48.524;9.056;2024-01-06T13:03:37;10.70;1.00
506;DHT22;551;48.524;9.056;2024-01-06T13:06:03;10.70;1.00
506;DHT22;551;48.524;9.056;2024-01-06T13:08:29;10.60;1.00
506;DHT22;551;48.524;9.056;2024-01-06T13:10:55;10.50;1.00
506;DHT22;551;48.524;9.056;2024-01-06T13:13:21;10.40;1.00
506;DHT22;551;48.524;9.056;2024-01-06T13:15:46;10.20;1.00
506;DHT22;551;48.524;9.056;2024-01-06T13:18:12;10.10;1.00
506;DHT22;551;48.524;9.056;2024-01-06T13:20:38;10.00;1.00
506;DHT22;551;48.524;9.056;2024-01-06T13:23:09;9.90;1.00
506;DHT22;551;48.524;9.056;2024-01-06T13:25:35;9.90;1.00
506;DHT22;551;48.524;9.056;2024-01-06T13:28:01;9.90;1.00
506;DHT22;551;48.524;9.056;2024-01-06T13:30:26;9.90;1.00
506;DHT22;551;48.524;9.056;2024-01-06T13:32:53;10.00;1.00
506;DHT22;551;48.524;9.056;2024-01-06T13:35:20;9.90;1.00
506;DHT22;551;48.524;9.056;2024-01-06T13:37:46;9.80;1.00
506;DHT22;551;48.524;9.056;2024-01-06T13:40:13;9.70;1.00
506;DHT22;551;48.524;9.056;2024-01-06T13:42:39;9.70;1.00
506;DHT22;551;48.524;9.056;2024-01-06T13:45:06;9.60;1.00
506;DHT22;551;48.524;9.056;2024-01-06T13:47:32;9.50;1.00
506;DHT22;551;48.524;9.056;2024-01-06T13:49:58;9.40;1.00
506;DHT22;551;48.524;9.056;2024-01-06T13:52:24;9.40;1.00
506;DHT22;551;48.524;9.056;2024-01-06T13:54:49;9.30;1.00
506;DHT22;551;48.524;9.056;2024-01-06T13:57:15;9.40;1.00
506;DHT22;551;48.524;9.056;2024-01-06T13:59:40;9.30;1.00
506;DHT22;551;48.524;9.056;2024-01-06T14:02:08;9.30;1.00
506;DHT22;551;48.524;9.056;2024-01-06T14:04:35;9.20;1.00
506;DHT22;551;48.524;9.056;2024-01-06T14:07:01;9.20;1.00
506;DHT22;551;48.524;9.056;2024-01-06T14:09:27;9.20;1.00
506;DHT22;551;48.524;9.056;2024-01-06T14:11:53;9.20;1.00
506;DHT22;551;48.524;9.056;2024-01-06T14:14:20;9.20;1.00
506;DHT22;551;48.524;9.056;2024-01-06T14:16:45;9.20;1.00
506;DHT22;551;48.524;9.056;2024-01-06T14:19:12;9.20;1.00
506;DHT22;551;48.524;9.056;2024-01-06T14:21:37;9.20;1.00
506;DHT22;551;48.524;9.056;2024-01-06T14:24:04;9.20;1.00
506;DHT22;551;48.524;9.056;2024-01-06T14:26:31;9.20;1.00
506;DHT22;551;48.524;9.056;2024-01-06T14:28:57;9.20;1.00
506;DHT22;551;48.524;9.056;2024-01-06T14:31:24;9.20;1.00
506;DHT22;551;48.524;9.056;2024-01-06T14:33:49;9.20;1.00
506;DHT22;551;48.524;9.056;2024-01-06T14:36:15;9.20;1.00
506;DHT22;551;48.524;9.056;2024-01-06T14:38:40;9.10;1.00
506;DHT22;551;48.524;9.056;2024-01-06T14:41:06;9.00;1.00
506;DHT22;551;48.524;9.056;2024-01-06T14:43:32;9.00;1.00
506;DHT22;551;48.524;9.056;2024-01-06T14:45:57;8.90;1.00
506;DHT22;551;48.524;9.056;2024-01-06T14:48:23;8.90;1.00
506;DHT22;551;48.524;9.056;2024-01-06T14:50:48;9.00;1.00
506;DHT22;551;48.524;9.056;2024-01-06T14:53:14;9.00;1.00
506;DHT22;551;48.524;9.056;2024-01-06T14:55:40;8.90;1.00
506;DHT22;551;48.524;9.056;2024-01-06T14:58:05;8.90;1.00
506;DHT22;551;48.524;9.056;2024-01-06T15:00:31;8.80;1.00
506;DHT22;551;48.524;9.056;2024-01-06T15:02:57;8.80;1.00
506;DHT22;551;48.524;9.056;2024-01-06T15:05:23;8.70;1.00
506;DHT22;551;48.524;9.056;2024-01-06T15:07:48;8.60;1.00
506;DHT22;551;48.524;9.056;2024-01-06T15:10:14;8.60;1.00
506;DHT22;551;48.524;9.056;2024-01-06T15:12:41;8.60;1.00
506;DHT22;551;48.524;9.056;2024-01-06T15:15:06;8.60;1.00
506;DHT22;551;48.524;9.056;2024-01-06T15:17:34;8.60;1.00
506;DHT22;551;48.524;9.056;2024-01-06T15:19:59;8.60;1.00
506;DHT22;551;48.524;9.056;2024-01-06T15:22:25;8.60;1.00
506;DHT22;551;48.524;9.056;2024-01-06T15:24:50;8.50;1.00
506;DHT22;551;48.524;9.056;2024-01-06T15:27:16;8.50;1.00
506;DHT22;551;48.524;9.056;2024-01-06T15:29:42;8.50;1.00
506;DHT22;551;48.524;9.056;2024-01-06T15:32:07;8.40;1.00
506;DHT22;551;48.524;9.056;2024-01-06T15:34:34;8.30;1.00
506;DHT22;551;48.524;9.056;2024-01-06T15:36:59;8.30;1.00
506;DHT22;551;48.524;9.056;2024-01-06T15:39:25;8.30;1.00
506;DHT22;551;48.524;9.056;2024-01-06T15:41:50;8.20;1.00
506;DHT22;551;48.524;9.056;2024-01-06T15:44:19;8.20;1.00
506;DHT22;551;48.524;9.056;2024-01-06T15:46:44;8.30;1.00
506;DHT22;551;48.524;9.056;2024-01-06T15:49:11;8.20;1.00
506;DHT22;551;48.524;9.056;2024-01-06T15:51:36;8.10;1.00
506;DHT22;551;48.524;9.056;2024-01-06T15:54:02;8.20;1.00
506;DHT22;551;48.524;9.056;2024-01-06T15:56:27;8.20;1.00
506;DHT22;551;48.524;9.056;2024-01-06T15:58:53;8.20;1.00
506;DHT22;551;48.524;9.056;2024-01-06T16:01:20;8.30;1.00
506;DHT22;551;48.524;9.056;2024-01-06T16:03:46;8.20;1.00
506;DHT22;551;48.524;9.056;2024-01-06T16:06:11;8.20;1.00
506;DHT22;551;48.524;9.056;2024-01-06T16:08:37;8.20;1.00
506;DHT22;551;48.524;9.056;2024-01-06T16:11:03;8.20;1.00
506;DHT22;551;48.524;9.056;2024-01-06T16:13:28;8.20;1.00
506;DHT22;551;48.524;9.056;2024-01-06T16:15:54;8.20;1.00
506;DHT22;551;48.524;9.056;2024-01-06T16:18:19;8.30;1.00
506;DHT22;551;48.524;9.056;2024-01-06T16:20:46;8.20;1.00
506;DHT22;551;48.524;9.056;2024-01-06T16:23:12;8.20;1.00
506;DHT22;551;48.524;9.056;2024-01-06T16:25:39;8.10;1.00
506;DHT22;551;48.524;9.056;2024-01-06T16:28:05;8.10;1.00
506;DHT22;551;48.524;9.056;2024-01-06T16:30:31;8.00;1.00
506;DHT22;551;48.524;9.056;2024-01-06T16:32:57;8.00;1.00
506;DHT22;551;48.524;9.056;2024-01-06T16:35:25;8.00;1.00
506;DHT22;551;48.524;9.056;2024-01-06T16:37:50;8.00;1.00
506;DHT22;551;48.524;9.056;2024-01-06T16:40:16;8.10;1.00
506;DHT22;551;48.524;9.056;2024-01-06T16:42:44;8.00;1.00
506;DHT22;551;48.524;9.056;2024-01-06T16:45:09;7.90;1.00
506;DHT22;551;48.524;9.056;2024-01-06T16:47:35;8.00;1.00
506;DHT22;551;48.524;9.056;2024-01-06T16:50:01;8.00;1.00
506;DHT22;551;48.524;9.056;2024-01-06T16:52:26;8.10;1.00
506;DHT22;551;48.524;9.056;2024-01-06T16:54:52;8.10;1.00
506;DHT22;551;48.524;9.056;2024-01-06T16:57:18;8.10;1.00
506;DHT22;551;48.524;9.056;2024-01-06T16:59:43;8.10;1.00
506;DHT22;551;48.524;9.056;2024-01-06T17:02:09;8.10;1.00
506;DHT22;551;48.524;9.056;2024-01-06T17:04:34;8.10;1.00
506;DHT22;551;48.524;9.056;2024-01-06T17:07:01;8.00;1.00